sensor_id;sensor_type;location;lat;lon;timestamp;P1;durP1;ratioP1;P2;durP2;ratioP2
63818;SDS011;49970;54.976;73.248;2022-09-09T00:06:52;7.03;;;2.33;;
63818;SDS011;49970;54.976;73.248;2022-09-09T00:12:26;1.80;;;1.70;;
63818;SDS011;49970;54.976;73.248;2022-09-09T00:15:14;3.63;;;2.08;;
63818;SDS011;49970;54.976;73.248;2022-09-09T00:17:53;3.78;;;1.40;;
63818;SDS011;49970;54.976;73.248;2022-09-09T00:20:29;2.28;;;1.65;;
63818;SDS011;49970;54.976;73.248;2022-09-09T00:28:39;2.20;;;2.03;;
63818;SDS011;49970;54.976;73.248;2022-09-09T00:31:13;3.90;;;1.92;;
63818;SDS011;49970;54.976;73.248;2022-09-09T00:33:47;4.22;;;1.33;;
63818;SDS011;49970;54.976;73.248;2022-09-09T00:36:23;11.45;;;1.92;;
63818;SDS011;49970;54.976;73.248;2022-09-09T00:38:57;3.13;;;2.10;;
63818;SDS011;49970;54.976;73.248;2022-09-09T00:56:12;2.22;;;2.10;;
63818;SDS011;49970;54.976;73.248;2022-09-09T00:58:46;7.55;;;2.17;;
63818;SDS011;49970;54.976;73.248;2022-09-09T01:01:21;2.88;;;2.63;;
63818;SDS011;49970;54.976;73.248;2022-09-09T01:03:54;5.25;;;2.78;;
63818;SDS011;49970;54.976;73.248;2022-09-09T01:14:48;7.85;;;3.38;;
63818;SDS011;49970;54.976;73.248;2022-09-09T01:17:21;23.92;;;4.22;;
63818;SDS011;49970;54.976;73.248;2022-09-09T01:20:08;23.48;;;4.72;;
63818;SDS011;49970;54.976;73.248;2022-09-09T01:23:10;16.77;;;4.80;;
63818;SDS011;49970;54.976;73.248;2022-09-09T01:26:30;30.00;;;5.40;;
63818;SDS011;49970;54.976;73.248;2022-09-09T01:29:15;25.13;;;6.68;;
63818;SDS011;49970;54.976;73.248;2022-09-09T01:31:54;17.98;;;7.72;;
63818;SDS011;49970;54.976;73.248;2022-09-09T01:34:27;33.60;;;8.65;;
63818;SDS011;49970;54.976;73.248;2022-09-09T01:37:03;25.08;;;6.70;;
63818;SDS011;49970;54.976;73.248;2022-09-09T01:39:33;19.63;;;5.03;;
63818;SDS011;49970;54.976;73.248;2022-09-09T01:42:13;19.48;;;4.95;;
63818;SDS011;49970;54.976;73.248;2022-09-09T01:44:44;7.63;;;3.65;;
63818;SDS011;49970;54.976;73.248;2022-09-09T01:47:11;4.15;;;3.15;;
63818;SDS011;49970;54.976;73.248;2022-09-09T01:49:58;11.30;;;3.67;;
63818;SDS011;49970;54.976;73.248;2022-09-09T01:52:27;9.35;;;2.65;;
63818;SDS011;49970;54.976;73.248;2022-09-09T01:54:55;5.68;;;2.20;;
63818;SDS011;49970;54.976;73.248;2022-09-09T01:57:31;9.57;;;2.50;;
63818;SDS011;49970;54.976;73.248;2022-09-09T02:00:09;3.58;;;2.60;;
63818;SDS011;49970;54.976;73.248;2022-09-09T02:05:54;6.47;;;2.10;;
63818;SDS011;49970;54.976;73.248;2022-09-09T02:08:42;4.45;;;1.92;;
63818;SDS011;49970;54.976;73.248;2022-09-09T02:11:17;9.60;;;1.83;;
63818;SDS011;49970;54.976;73.248;2022-09-09T02:13:52;11.73;;;1.98;;
63818;SDS011;49970;54.976;73.248;2022-09-09T02:21:48;1.70;;;1.60;;
63818;SDS011;49970;54.976;73.248;2022-09-09T02:24:16;3.08;;;1.40;;
63818;SDS011;49970;54.976;73.248;2022-09-09T02:26:59;1.35;;;1.25;;
63818;SDS011;49970;54.976;73.248;2022-09-09T02:29:31;9.90;;;1.58;;
63818;SDS011;49970;54.976;73.248;2022-09-09T02:32:05;8.93;;;1.20;;
63818;SDS011;49970;54.976;73.248;2022-09-09T02:34:40;6.20;;;1.65;;
63818;SDS011;49970;54.976;73.248;2022-09-09T02:37:17;7.25;;;1.58;;
63818;SDS011;49970;54.976;73.248;2022-09-09T02:39:50;4.95;;;1.40;;
63818;SDS011;49970;54.976;73.248;2022-09-09T02:42:19;3.28;;;1.42;;
63818;SDS011;49970;54.976;73.248;2022-09-09T02:44:46;10.50;;;1.27;;
63818;SDS011;49970;54.976;73.248;2022-09-09T02:58:38;11.70;;;1.55;;
63818;SDS011;49970;54.976;73.248;2022-09-09T03:02:31;7.95;;;1.30;;
63818;SDS011;49970;54.976;73.248;2022-09-09T03:06:28;1.70;;;1.05;;
63818;SDS011;49970;54.976;73.248;2022-09-09T03:10:20;9.68;;;1.10;;
63818;SDS011;49970;54.976;73.248;2022-09-09T03:14:12;8.27;;;1.90;;
63818;SDS011;49970;54.976;73.248;2022-09-09T03:17:43;6.72;;;0.93;;
63818;SDS011;49970;54.976;73.248;2022-09-09T03:20:10;5.22;;;0.90;;
63818;SDS011;49970;54.976;73.248;2022-09-09T03:22:37;4.60;;;0.93;;
63818;SDS011;49970;54.976;73.248;2022-09-09T03:25:04;0.80;;;0.80;;
63818;SDS011;49970;54.976;73.248;2022-09-09T03:27:33;1.55;;;0.70;;
63818;SDS011;49970;54.976;73.248;2022-09-09T03:29:59;20.95;;;1.50;;
63818;SDS011;49970;54.976;73.248;2022-09-09T03:32:29;12.00;;;1.38;;
63818;SDS011;49970;54.976;73.248;2022-09-09T03:34:57;3.50;;;0.70;;
63818;SDS011;49970;54.976;73.248;2022-09-09T03:37:23;0.90;;;0.80;;
63818;SDS011;49970;54.976;73.248;2022-09-09T03:40:01;9.00;;;0.60;;
63818;SDS011;49970;54.976;73.248;2022-09-09T03:43:52;5.25;;;0.70;;
63818;SDS011;49970;54.976;73.248;2022-09-09T03:51:55;5.90;;;0.80;;
63818;SDS011;49970;54.976;73.248;2022-09-09T03:56:10;2.40;;;0.60;;
63818;SDS011;49970;54.976;73.248;2022-09-09T03:58:41;10.43;;;0.60;;
63818;SDS011;49970;54.976;73.248;2022-09-09T04:01:22;10.68;;;0.70;;
63818;SDS011;49970;54.976;73.248;2022-09-09T04:03:52;5.25;;;0.55;;
63818;SDS011;49970;54.976;73.248;2022-09-09T04:06:22;1.20;;;0.50;;
63818;SDS011;49970;54.976;73.248;2022-09-09T04:08:52;4.25;;;0.70;;
63818;SDS011;49970;54.976;73.248;2022-09-09T04:11:26;8.20;;;0.50;;
63818;SDS011;49970;54.976;73.248;2022-09-09T04:13:59;10.48;;;1.02;;
63818;SDS011;49970;54.976;73.248;2022-09-09T04:16:31;1.75;;;0.50;;
63818;SDS011;49970;54.976;73.248;2022-09-09T04:19:04;4.57;;;0.60;;
63818;SDS011;49970;54.976;73.248;2022-09-09T04:21:38;1.80;;;0.50;;
63818;SDS011;49970;54.976;73.248;2022-09-09T04:24:08;5.65;;;1.10;;
63818;SDS011;49970;54.976;73.248;2022-09-09T04:26:40;1.88;;;0.80;;
63818;SDS011;49970;54.976;73.248;2022-09-09T04:29:10;2.70;;;0.40;;
63818;SDS011;49970;54.976;73.248;2022-09-09T04:31:40;1.75;;;0.57;;
63818;SDS011;49970;54.976;73.248;2022-09-09T04:34:09;2.83;;;0.50;;
63818;SDS011;49970;54.976;73.248;2022-09-09T04:36:45;0.95;;;0.40;;
63818;SDS011;49970;54.976;73.248;2022-09-09T04:39:16;6.45;;;0.50;;
63818;SDS011;49970;54.976;73.248;2022-09-09T04:41:44;2.50;;;0.50;;
63818;SDS011;49970;54.976;73.248;2022-09-09T04:44:16;0.70;;;0.40;;
63818;SDS011;49970;54.976;73.248;2022-09-09T04:46:57;6.88;;;0.55;;
63818;SDS011;49970;54.976;73.248;2022-09-09T04:49:27;14.68;;;0.47;;
63818;SDS011;49970;54.976;73.248;2022-09-09T04:52:00;0.50;;;0.50;;
63818;SDS011;49970;54.976;73.248;2022-09-09T04:54:42;14.10;;;0.90;;
63818;SDS011;49970;54.976;73.248;2022-09-09T04:57:13;0.50;;;0.50;;
63818;SDS011;49970;54.976;73.248;2022-09-09T04:59:42;1.02;;;0.30;;
63818;SDS011;49970;54.976;73.248;2022-09-09T05:02:22;0.28;;;0.28;;
63818;SDS011;49970;54.976;73.248;2022-09-09T05:04:54;0.95;;;0.50;;
63818;SDS011;49970;54.976;73.248;2022-09-09T05:08:45;7.07;;;0.80;;
63818;SDS011;49970;54.976;73.248;2022-09-09T05:12:33;7.63;;;0.60;;
63818;SDS011;49970;54.976;73.248;2022-09-09T05:15:00;0.98;;;0.50;;
63818;SDS011;49970;54.976;73.248;2022-09-09T05:17:27;4.78;;;0.50;;
63818;SDS011;49970;54.976;73.248;2022-09-09T05:19:53;10.52;;;0.60;;
63818;SDS011;49970;54.976;73.248;2022-09-09T05:22:20;2.58;;;0.68;;
63818;SDS011;49970;54.976;73.248;2022-09-09T05:24:48;9.20;;;0.65;;
63818;SDS011;49970;54.976;73.248;2022-09-09T05:27:17;4.35;;;0.85;;
63818;SDS011;49970;54.976;73.248;2022-09-09T05:29:47;4.32;;;0.93;;
63818;SDS011;49970;54.976;73.248;2022-09-09T05:32:24;8.55;;;0.70;;
63818;SDS011;49970;54.976;73.248;2022-09-09T05:34:51;4.20;;;1.50;;
63818;SDS011;49970;54.976;73.248;2022-09-09T05:37:22;5.47;;;2.10;;
63818;SDS011;49970;54.976;73.248;2022-09-09T05:39:49;9.07;;;2.00;;
63818;SDS011;49970;54.976;73.248;2022-09-09T05:42:16;3.90;;;2.00;;
63818;SDS011;49970;54.976;73.248;2022-09-09T05:44:43;8.23;;;1.60;;
63818;SDS011;49970;54.976;73.248;2022-09-09T05:47:15;8.43;;;0.77;;
63818;SDS011;49970;54.976;73.248;2022-09-09T05:49:42;7.03;;;0.85;;
63818;SDS011;49970;54.976;73.248;2022-09-09T05:52:09;2.22;;;0.70;;
63818;SDS011;49970;54.976;73.248;2022-09-09T05:54:35;0.90;;;0.70;;
63818;SDS011;49970;54.976;73.248;2022-09-09T05:57:03;7.90;;;1.02;;
63818;SDS011;49970;54.976;73.248;2022-09-09T05:59:29;3.33;;;0.68;;
63818;SDS011;49970;54.976;73.248;2022-09-09T06:01:59;5.38;;;0.60;;
63818;SDS011;49970;54.976;73.248;2022-09-09T06:04:31;5.07;;;0.50;;
63818;SDS011;49970;54.976;73.248;2022-09-09T06:06:59;8.90;;;0.57;;
63818;SDS011;49970;54.976;73.248;2022-09-09T06:09:26;5.90;;;0.50;;
63818;SDS011;49970;54.976;73.248;2022-09-09T06:11:53;2.97;;;0.50;;
63818;SDS011;49970;54.976;73.248;2022-09-09T06:14:26;2.17;;;0.50;;
63818;SDS011;49970;54.976;73.248;2022-09-09T06:16:55;11.07;;;0.60;;
63818;SDS011;49970;54.976;73.248;2022-09-09T06:19:26;4.80;;;0.63;;
63818;SDS011;49970;54.976;73.248;2022-09-09T06:21:55;14.00;;;0.50;;
63818;SDS011;49970;54.976;73.248;2022-09-09T06:24:31;8.20;;;0.63;;
63818;SDS011;49970;54.976;73.248;2022-09-09T06:27:00;20.98;;;0.60;;
63818;SDS011;49970;54.976;73.248;2022-09-09T06:29:30;1.85;;;0.40;;
63818;SDS011;49970;54.976;73.248;2022-09-09T06:31:56;7.05;;;3.03;;
63818;SDS011;49970;54.976;73.248;2022-09-09T06:34:26;7.70;;;0.40;;
63818;SDS011;49970;54.976;73.248;2022-09-09T06:37:03;9.73;;;0.68;;
63818;SDS011;49970;54.976;73.248;2022-09-09T06:39:37;10.25;;;0.60;;
63818;SDS011;49970;54.976;73.248;2022-09-09T06:42:04;3.67;;;0.50;;
63818;SDS011;49970;54.976;73.248;2022-09-09T06:44:53;3.45;;;0.63;;
63818;SDS011;49970;54.976;73.248;2022-09-09T06:47:55;4.25;;;0.65;;
63818;SDS011;49970;54.976;73.248;2022-09-09T06:50:22;3.28;;;0.55;;
63818;SDS011;49970;54.976;73.248;2022-09-09T06:52:49;1.27;;;0.80;;
63818;SDS011;49970;54.976;73.248;2022-09-09T06:55:15;7.03;;;0.60;;
63818;SDS011;49970;54.976;73.248;2022-09-09T06:57:43;10.35;;;1.05;;
63818;SDS011;49970;54.976;73.248;2022-09-09T07:00:17;1.88;;;0.85;;
63818;SDS011;49970;54.976;73.248;2022-09-09T07:02:53;5.43;;;0.52;;
63818;SDS011;49970;54.976;73.248;2022-09-09T07:05:20;5.95;;;0.60;;
63818;SDS011;49970;54.976;73.248;2022-09-09T07:07:46;16.30;;;0.90;;
63818;SDS011;49970;54.976;73.248;2022-09-09T07:10:16;9.10;;;0.70;;
63818;SDS011;49970;54.976;73.248;2022-09-09T07:12:44;7.65;;;0.50;;
63818;SDS011;49970;54.976;73.248;2022-09-09T07:15:11;4.00;;;0.63;;
63818;SDS011;49970;54.976;73.248;2022-09-09T07:17:42;17.65;;;0.63;;
63818;SDS011;49970;54.976;73.248;2022-09-09T07:20:08;2.85;;;0.75;;
63818;SDS011;49970;54.976;73.248;2022-09-09T07:22:35;2.13;;;0.70;;
63818;SDS011;49970;54.976;73.248;2022-09-09T07:25:01;6.78;;;0.75;;
63818;SDS011;49970;54.976;73.248;2022-09-09T07:27:29;4.53;;;0.80;;
63818;SDS011;49970;54.976;73.248;2022-09-09T07:29:55;12.45;;;1.90;;
63818;SDS011;49970;54.976;73.248;2022-09-09T07:32:23;3.33;;;0.70;;
63818;SDS011;49970;54.976;73.248;2022-09-09T07:34:51;7.43;;;0.90;;
63818;SDS011;49970;54.976;73.248;2022-09-09T07:37:17;11.18;;;1.27;;
63818;SDS011;49970;54.976;73.248;2022-09-09T07:39:45;19.13;;;1.23;;
63818;SDS011;49970;54.976;73.248;2022-09-09T07:42:12;12.95;;;1.00;;
63818;SDS011;49970;54.976;73.248;2022-09-09T07:44:39;10.82;;;0.70;;
63818;SDS011;49970;54.976;73.248;2022-09-09T07:47:09;14.30;;;0.82;;
63818;SDS011;49970;54.976;73.248;2022-09-09T07:52:09;11.48;;;1.30;;
63818;SDS011;49970;54.976;73.248;2022-09-09T07:54:40;22.65;;;0.70;;
63818;SDS011;49970;54.976;73.248;2022-09-09T07:58:33;6.30;;;0.80;;
63818;SDS011;49970;54.976;73.248;2022-09-09T08:02:24;2.20;;;0.60;;
63818;SDS011;49970;54.976;73.248;2022-09-09T08:06:14;10.15;;;0.98;;
63818;SDS011;49970;54.976;73.248;2022-09-09T08:14:40;9.90;;;0.68;;
63818;SDS011;49970;54.976;73.248;2022-09-09T08:18:33;10.10;;;0.82;;
63818;SDS011;49970;54.976;73.248;2022-09-09T08:21:07;5.60;;;1.08;;
63818;SDS011;49970;54.976;73.248;2022-09-09T08:23:39;15.73;;;1.23;;
63818;SDS011;49970;54.976;73.248;2022-09-09T08:26:15;14.57;;;0.95;;
63818;SDS011;49970;54.976;73.248;2022-09-09T08:28:42;14.60;;;1.15;;
63818;SDS011;49970;54.976;73.248;2022-09-09T08:31:13;14.70;;;1.10;;
63818;SDS011;49970;54.976;73.248;2022-09-09T08:33:43;20.98;;;1.10;;
63818;SDS011;49970;54.976;73.248;2022-09-09T08:36:21;1.92;;;0.88;;
63818;SDS011;49970;54.976;73.248;2022-09-09T08:38:59;2.60;;;1.30;;
63818;SDS011;49970;54.976;73.248;2022-09-09T08:47:35;12.45;;;0.98;;
63818;SDS011;49970;54.976;73.248;2022-09-09T08:50:30;10.95;;;0.95;;
63818;SDS011;49970;54.976;73.248;2022-09-09T08:54:19;11.98;;;1.20;;
63818;SDS011;49970;54.976;73.248;2022-09-09T09:01:09;9.85;;;1.52;;
63818;SDS011;49970;54.976;73.248;2022-09-09T09:03:53;3.42;;;1.00;;
63818;SDS011;49970;54.976;73.248;2022-09-09T09:09:56;5.65;;;1.50;;
63818;SDS011;49970;54.976;73.248;2022-09-09T09:12:51;11.55;;;1.50;;
63818;SDS011;49970;54.976;73.248;2022-09-09T09:15:26;14.00;;;1.77;;
63818;SDS011;49970;54.976;73.248;2022-09-09T09:18:03;17.42;;;1.45;;
63818;SDS011;49970;54.976;73.248;2022-09-09T09:20:42;12.48;;;1.40;;
63818;SDS011;49970;54.976;73.248;2022-09-09T09:23:22;19.45;;;1.52;;
63818;SDS011;49970;54.976;73.248;2022-09-09T09:25:55;6.45;;;1.30;;
63818;SDS011;49970;54.976;73.248;2022-09-09T09:28:27;8.87;;;1.13;;
63818;SDS011;49970;54.976;73.248;2022-09-09T09:31:10;3.30;;;1.42;;
63818;SDS011;49970;54.976;73.248;2022-09-09T09:33:49;7.90;;;1.60;;
63818;SDS011;49970;54.976;73.248;2022-09-09T09:36:21;22.98;;;1.50;;
63818;SDS011;49970;54.976;73.248;2022-09-09T09:39:00;12.15;;;1.73;;
63818;SDS011;49970;54.976;73.248;2022-09-09T09:41:41;10.07;;;1.30;;
63818;SDS011;49970;54.976;73.248;2022-09-09T09:44:24;9.43;;;1.55;;
63818;SDS011;49970;54.976;73.248;2022-09-09T09:47:13;16.15;;;1.63;;
63818;SDS011;49970;54.976;73.248;2022-09-09T09:49:57;4.90;;;1.10;;
63818;SDS011;49970;54.976;73.248;2022-09-09T09:52:27;9.57;;;1.27;;
63818;SDS011;49970;54.976;73.248;2022-09-09T09:54:59;9.63;;;1.70;;
63818;SDS011;49970;54.976;73.248;2022-09-09T09:57:34;11.82;;;1.40;;
63818;SDS011;49970;54.976;73.248;2022-09-09T10:02:46;27.42;;;2.05;;
63818;SDS011;49970;54.976;73.248;2022-09-09T10:05:20;12.30;;;1.55;;
63818;SDS011;49970;54.976;73.248;2022-09-09T10:21:36;10.18;;;1.30;;
63818;SDS011;49970;54.976;73.248;2022-09-09T10:30:00;9.73;;;1.42;;
63818;SDS011;49970;54.976;73.248;2022-09-09T10:32:37;20.85;;;3.92;;
63818;SDS011;49970;54.976;73.248;2022-09-09T10:35:30;22.17;;;2.78;;
63818;SDS011;49970;54.976;73.248;2022-09-09T10:41:23;23.42;;;4.28;;
63818;SDS011;49970;54.976;73.248;2022-09-09T10:44:39;28.05;;;2.70;;
63818;SDS011;49970;54.976;73.248;2022-09-09T10:47:03;9.13;;;2.47;;
63818;SDS011;49970;54.976;73.248;2022-09-09T10:56:06;8.82;;;2.15;;
63818;SDS011;49970;54.976;73.248;2022-09-09T10:58:54;4.20;;;2.47;;
63818;SDS011;49970;54.976;73.248;2022-09-09T11:04:16;14.40;;;2.00;;
63818;SDS011;49970;54.976;73.248;2022-09-09T11:07:08;12.07;;;2.42;;
63818;SDS011;49970;54.976;73.248;2022-09-09T11:09:42;16.17;;;2.50;;
63818;SDS011;49970;54.976;73.248;2022-09-09T11:12:17;13.68;;;2.10;;
63818;SDS011;49970;54.976;73.248;2022-09-09T11:14:48;8.00;;;2.47;;
63818;SDS011;49970;54.976;73.248;2022-09-09T11:17:22;17.00;;;2.90;;
63818;SDS011;49970;54.976;73.248;2022-09-09T11:19:52;14.55;;;2.92;;
63818;SDS011;49970;54.976;73.248;2022-09-09T11:24:53;19.30;;;3.13;;
63818;SDS011;49970;54.976;73.248;2022-09-09T11:27:44;18.30;;;2.47;;
63818;SDS011;49970;54.976;73.248;2022-09-09T11:30:38;25.13;;;2.10;;
63818;SDS011;49970;54.976;73.248;2022-09-09T11:38:44;13.30;;;1.80;;
63818;SDS011;49970;54.976;73.248;2022-09-09T11:41:17;15.07;;;2.30;;
63818;SDS011;49970;54.976;73.248;2022-09-09T11:43:49;18.33;;;2.30;;
63818;SDS011;49970;54.976;73.248;2022-09-09T11:46:19;18.15;;;1.75;;
63818;SDS011;49970;54.976;73.248;2022-09-09T11:48:58;16.08;;;1.70;;
63818;SDS011;49970;54.976;73.248;2022-09-09T11:51:27;16.50;;;1.90;;
63818;SDS011;49970;54.976;73.248;2022-09-09T11:56:44;11.65;;;1.75;;
63818;SDS011;49970;54.976;73.248;2022-09-09T11:59:19;20.42;;;2.05;;
63818;SDS011;49970;54.976;73.248;2022-09-09T12:04:56;12.10;;;3.25;;
63818;SDS011;49970;54.976;73.248;2022-09-09T12:10:17;3.65;;;1.77;;
63818;SDS011;49970;54.976;73.248;2022-09-09T12:12:45;21.70;;;1.77;;
63818;SDS011;49970;54.976;73.248;2022-09-09T12:17:52;13.52;;;3.53;;
63818;SDS011;49970;54.976;73.248;2022-09-09T12:20:21;26.48;;;4.68;;
63818;SDS011;49970;54.976;73.248;2022-09-09T12:28:26;12.90;;;2.10;;
63818;SDS011;49970;54.976;73.248;2022-09-09T12:31:08;14.18;;;1.77;;
63818;SDS011;49970;54.976;73.248;2022-09-09T12:33:53;12.90;;;2.10;;
63818;SDS011;49970;54.976;73.248;2022-09-09T12:36:21;6.65;;;1.30;;
63818;SDS011;49970;54.976;73.248;2022-09-09T12:39:09;21.58;;;2.88;;
63818;SDS011;49970;54.976;73.248;2022-09-09T12:41:55;12.70;;;2.30;;
63818;SDS011;49970;54.976;73.248;2022-09-09T12:44:26;16.73;;;3.67;;
63818;SDS011;49970;54.976;73.248;2022-09-09T12:47:05;14.13;;;4.63;;
63818;SDS011;49970;54.976;73.248;2022-09-09T12:49:36;16.80;;;7.20;;
63818;SDS011;49970;54.976;73.248;2022-09-09T12:54:45;31.02;;;10.05;;
63818;SDS011;49970;54.976;73.248;2022-09-09T12:57:13;34.63;;;8.52;;
63818;SDS011;49970;54.976;73.248;2022-09-09T12:59:42;22.70;;;9.85;;
63818;SDS011;49970;54.976;73.248;2022-09-09T13:02:20;28.58;;;9.90;;
63818;SDS011;49970;54.976;73.248;2022-09-09T13:04:48;30.52;;;10.73;;
63818;SDS011;49970;54.976;73.248;2022-09-09T13:07:19;28.38;;;10.05;;
63818;SDS011;49970;54.976;73.248;2022-09-09T13:09:57;20.42;;;9.32;;
63818;SDS011;49970;54.976;73.248;2022-09-09T13:12:28;22.50;;;8.82;;
63818;SDS011;49970;54.976;73.248;2022-09-09T13:14:55;21.63;;;8.85;;
63818;SDS011;49970;54.976;73.248;2022-09-09T13:17:32;23.08;;;9.32;;
63818;SDS011;49970;54.976;73.248;2022-09-09T13:19:58;23.38;;;9.07;;
63818;SDS011;49970;54.976;73.248;2022-09-09T13:22:30;19.98;;;7.95;;
63818;SDS011;49970;54.976;73.248;2022-09-09T13:33:05;33.83;;;10.65;;
63818;SDS011;49970;54.976;73.248;2022-09-09T13:35:56;21.17;;;9.32;;
63818;SDS011;49970;54.976;73.248;2022-09-09T13:38:27;22.00;;;9.05;;
63818;SDS011;49970;54.976;73.248;2022-09-09T13:40:55;23.65;;;9.60;;
63818;SDS011;49970;54.976;73.248;2022-09-09T13:43:27;27.87;;;9.23;;
63818;SDS011;49970;54.976;73.248;2022-09-09T13:46:01;25.80;;;8.80;;
63818;SDS011;49970;54.976;73.248;2022-09-09T13:48:29;24.33;;;9.30;;
63818;SDS011;49970;54.976;73.248;2022-09-09T13:51:00;21.73;;;7.53;;
63818;SDS011;49970;54.976;73.248;2022-09-09T13:53:39;31.90;;;9.00;;
63818;SDS011;49970;54.976;73.248;2022-09-09T13:56:05;27.95;;;10.95;;
63818;SDS011;49970;54.976;73.248;2022-09-09T13:58:34;33.40;;;10.68;;
63818;SDS011;49970;54.976;73.248;2022-09-09T14:01:10;24.55;;;10.05;;
63818;SDS011;49970;54.976;73.248;2022-09-09T14:03:37;27.77;;;9.32;;
63818;SDS011;49970;54.976;73.248;2022-09-09T14:06:03;22.85;;;10.10;;
63818;SDS011;49970;54.976;73.248;2022-09-09T14:08:29;22.30;;;9.95;;
63818;SDS011;49970;54.976;73.248;2022-09-09T14:11:03;38.65;;;12.13;;
63818;SDS011;49970;54.976;73.248;2022-09-09T14:13:30;27.60;;;10.38;;
63818;SDS011;49970;54.976;73.248;2022-09-09T14:15:56;25.42;;;9.20;;
63818;SDS011;49970;54.976;73.248;2022-09-09T14:18:23;24.33;;;8.43;;
63818;SDS011;49970;54.976;73.248;2022-09-09T14:20:51;17.65;;;7.82;;
63818;SDS011;49970;54.976;73.248;2022-09-09T14:23:17;25.63;;;7.57;;
63818;SDS011;49970;54.976;73.248;2022-09-09T14:25:44;24.80;;;7.88;;
63818;SDS011;49970;54.976;73.248;2022-09-09T14:28:11;16.20;;;6.55;;
63818;SDS011;49970;54.976;73.248;2022-09-09T14:30:39;25.08;;;6.95;;
63818;SDS011;49970;54.976;73.248;2022-09-09T14:33:07;21.75;;;7.38;;
63818;SDS011;49970;54.976;73.248;2022-09-09T14:35:35;26.33;;;7.18;;
63818;SDS011;49970;54.976;73.248;2022-09-09T14:38:02;18.83;;;6.75;;
63818;SDS011;49970;54.976;73.248;2022-09-09T14:40:29;12.55;;;6.45;;
63818;SDS011;49970;54.976;73.248;2022-09-09T14:43:06;20.45;;;6.40;;
63818;SDS011;49970;54.976;73.248;2022-09-09T14:45:36;16.52;;;6.97;;
63818;SDS011;49970;54.976;73.248;2022-09-09T14:48:03;12.70;;;6.10;;
63818;SDS011;49970;54.976;73.248;2022-09-09T14:50:29;19.58;;;6.13;;
63818;SDS011;49970;54.976;73.248;2022-09-09T14:53:05;18.15;;;6.00;;
63818;SDS011;49970;54.976;73.248;2022-09-09T14:55:32;20.67;;;6.43;;
63818;SDS011;49970;54.976;73.248;2022-09-09T14:58:00;22.65;;;6.95;;
63818;SDS011;49970;54.976;73.248;2022-09-09T15:00:27;28.98;;;6.60;;
63818;SDS011;49970;54.976;73.248;2022-09-09T15:02:54;23.88;;;7.68;;
63818;SDS011;49970;54.976;73.248;2022-09-09T15:05:22;19.25;;;6.80;;
63818;SDS011;49970;54.976;73.248;2022-09-09T15:07:55;22.38;;;7.57;;
63818;SDS011;49970;54.976;73.248;2022-09-09T15:10:27;27.30;;;8.50;;
63818;SDS011;49970;54.976;73.248;2022-09-09T15:12:58;21.02;;;9.88;;
63818;SDS011;49970;54.976;73.248;2022-09-09T15:15:34;37.53;;;11.63;;
63818;SDS011;49970;54.976;73.248;2022-09-09T15:18:00;32.47;;;12.05;;
63818;SDS011;49970;54.976;73.248;2022-09-09T15:20:27;32.25;;;13.35;;
63818;SDS011;49970;54.976;73.248;2022-09-09T15:22:57;41.30;;;15.13;;
63818;SDS011;49970;54.976;73.248;2022-09-09T15:25:24;48.63;;;15.23;;
63818;SDS011;49970;54.976;73.248;2022-09-09T15:27:51;53.17;;;16.38;;
63818;SDS011;49970;54.976;73.248;2022-09-09T15:30:17;54.67;;;16.73;;
63818;SDS011;49970;54.976;73.248;2022-09-09T15:32:48;47.88;;;16.40;;
63818;SDS011;49970;54.976;73.248;2022-09-09T15:35:14;55.00;;;16.50;;
63818;SDS011;49970;54.976;73.248;2022-09-09T15:37:40;51.00;;;17.10;;
63818;SDS011;49970;54.976;73.248;2022-09-09T15:40:07;55.60;;;15.63;;
63818;SDS011;49970;54.976;73.248;2022-09-09T15:42:58;69.15;;;16.15;;
63818;SDS011;49970;54.976;73.248;2022-09-09T15:45:24;49.38;;;15.05;;
63818;SDS011;49970;54.976;73.248;2022-09-09T15:47:52;50.75;;;14.85;;
63818;SDS011;49970;54.976;73.248;2022-09-09T15:50:18;50.20;;;15.80;;
63818;SDS011;49970;54.976;73.248;2022-09-09T15:52:44;38.65;;;12.35;;
63818;SDS011;49970;54.976;73.248;2022-09-09T15:55:54;40.17;;;13.23;;
63818;SDS011;49970;54.976;73.248;2022-09-09T15:58:25;35.10;;;13.15;;
63818;SDS011;49970;54.976;73.248;2022-09-09T16:01:09;33.33;;;14.38;;
63818;SDS011;49970;54.976;73.248;2022-09-09T16:03:40;39.20;;;12.82;;
63818;SDS011;49970;54.976;73.248;2022-09-09T16:07:10;43.75;;;11.90;;
63818;SDS011;49970;54.976;73.248;2022-09-09T16:09:46;46.58;;;12.10;;
63818;SDS011;49970;54.976;73.248;2022-09-09T16:12:12;27.55;;;11.15;;
63818;SDS011;49970;54.976;73.248;2022-09-09T16:14:50;25.30;;;9.32;;
63818;SDS011;49970;54.976;73.248;2022-09-09T16:17:16;18.02;;;7.80;;
63818;SDS011;49970;54.976;73.248;2022-09-09T16:19:44;24.48;;;7.57;;
63818;SDS011;49970;54.976;73.248;2022-09-09T16:22:11;28.05;;;8.48;;
63818;SDS011;49970;54.976;73.248;2022-09-09T16:24:45;35.03;;;9.15;;
63818;SDS011;49970;54.976;73.248;2022-09-09T16:27:11;30.13;;;7.35;;
63818;SDS011;49970;54.976;73.248;2022-09-09T16:29:38;25.52;;;8.68;;
63818;SDS011;49970;54.976;73.248;2022-09-09T16:32:07;17.88;;;8.63;;
63818;SDS011;49970;54.976;73.248;2022-09-09T16:34:38;28.55;;;9.07;;
63818;SDS011;49970;54.976;73.248;2022-09-09T16:37:04;55.80;;;9.80;;
63818;SDS011;49970;54.976;73.248;2022-09-09T16:39:30;49.55;;;12.20;;
63818;SDS011;49970;54.976;73.248;2022-09-09T16:42:02;50.15;;;12.23;;
63818;SDS011;49970;54.976;73.248;2022-09-09T16:44:30;40.47;;;11.88;;
63818;SDS011;49970;54.976;73.248;2022-09-09T16:46:57;54.95;;;14.65;;
63818;SDS011;49970;54.976;73.248;2022-09-09T16:49:33;34.20;;;11.93;;
63818;SDS011;49970;54.976;73.248;2022-09-09T16:52:04;39.90;;;12.68;;
63818;SDS011;49970;54.976;73.248;2022-09-09T16:54:31;27.17;;;10.65;;
63818;SDS011;49970;54.976;73.248;2022-09-09T16:56:57;22.33;;;10.70;;
63818;SDS011;49970;54.976;73.248;2022-09-09T16:59:25;63.22;;;12.85;;
63818;SDS011;49970;54.976;73.248;2022-09-09T17:01:56;31.50;;;12.88;;
63818;SDS011;49970;54.976;73.248;2022-09-09T17:04:25;34.70;;;12.88;;
63818;SDS011;49970;54.976;73.248;2022-09-09T17:07:03;27.85;;;13.95;;
63818;SDS011;49970;54.976;73.248;2022-09-09T17:09:29;36.63;;;13.25;;
63818;SDS011;49970;54.976;73.248;2022-09-09T17:11:56;29.20;;;13.85;;
63818;SDS011;49970;54.976;73.248;2022-09-09T17:14:23;28.80;;;12.57;;
63818;SDS011;49970;54.976;73.248;2022-09-09T17:16:56;28.23;;;12.77;;
63818;SDS011;49970;54.976;73.248;2022-09-09T17:19:23;28.73;;;12.98;;
63818;SDS011;49970;54.976;73.248;2022-09-09T17:21:49;33.55;;;13.00;;
63818;SDS011;49970;54.976;73.248;2022-09-09T17:24:15;24.25;;;11.82;;
63818;SDS011;49970;54.976;73.248;2022-09-09T17:26:41;23.88;;;11.20;;
63818;SDS011;49970;54.976;73.248;2022-09-09T17:29:09;35.35;;;14.95;;
63818;SDS011;49970;54.976;73.248;2022-09-09T17:31:46;70.43;;;23.20;;
63818;SDS011;49970;54.976;73.248;2022-09-09T17:34:17;77.97;;;20.42;;
63818;SDS011;49970;54.976;73.248;2022-09-09T17:36:48;37.42;;;17.52;;
63818;SDS011;49970;54.976;73.248;2022-09-09T17:39:15;54.67;;;15.68;;
63818;SDS011;49970;54.976;73.248;2022-09-09T17:41:41;37.13;;;13.48;;
63818;SDS011;49970;54.976;73.248;2022-09-09T17:44:07;35.45;;;14.77;;
63818;SDS011;49970;54.976;73.248;2022-09-09T17:46:35;49.30;;;14.10;;
63818;SDS011;49970;54.976;73.248;2022-09-09T17:49:14;52.33;;;14.13;;